Time;durP1;ratioP1;P1;durP2;ratioP2;P2;SDS_P1;SDS_P2;PMS_P1;PMS_P2;Temp;Humidity;BMP_temperature;BMP_pressure;BME280_temperature;BME280_humidity;BME280_pressure;Samples;Min_cycle;Max_cycle;Signal;HPM_P1;HPM_P2
2022/09/01 00:01:20;;;;;;;31.88;17.83;;;14.80;99.90;;;;;;5027125;28;20477;-68
2022/09/01 00:03:47;;;;;;;34.85;18.70;;;14.90;99.90;;;;;;5012485;28;20084;-71
2022/09/01 00:06:14;;;;;;;33.78;19.52;;;14.90;99.90;;;;;;5014370;28;20396;-69
2022/09/01 00:08:40;;;;;;;35.53;19.70;;;14.90;99.90;;;;;;5002469;28;20141;-69
2022/09/01 00:11:06;;;;;;;37.47;18.80;;;14.90;99.90;;;;;;5018910;28;20108;-69
2022/09/01 00:13:32;;;;;;;34.83;20.00;;;14.80;99.90;;;;;;5008731;28;20091;-69
2022/09/01 00:16:00;;;;;;;35.08;20.30;;;14.80;99.90;;;;;;5009404;28;20481;-70
2022/09/01 00:18:26;;;;;;;22.05;14.07;;;14.90;99.90;;;;;;5012086;28;20033;-70
2022/09/01 00:20:54;;;;;;;21.35;12.20;;;14.80;99.90;;;;;;5010028;28;20789;-69
2022/09/01 00:23:20;;;;;;;22.23;13.90;;;14.60;99.90;;;;;;5012810;28;20077;-79
2022/09/01 00:25:45;;;;;;;25.35;15.50;;;14.50;99.90;;;;;;5008985;28;20417;-70
2022/09/01 00:28:11;;;;;;;26.58;16.13;;;14.50;99.90;;;;;;5005847;28;20153;-68
2022/09/01 00:30:37;;;;;;;28.85;17.67;;;14.50;99.90;;;;;;5009199;28;20038;-73
2022/09/01 00:33:03;;;;;;;35.08;19.85;;;14.50;99.90;;;;;;5011811;28;20053;-70
2022/09/01 00:35:28;;;;;;;42.25;21.77;;;14.50;99.90;;;;;;5008942;28;20034;-70
2022/09/01 00:37:54;;;;;;;33.17;19.73;;;14.60;99.90;;;;;;5007020;28;20040;-70
2022/09/01 00:40:20;;;;;;;38.75;21.30;;;14.70;99.90;;;;;;5010714;28;20034;-81
2022/09/01 00:42:47;;;;;;;35.60;19.92;;;14.70;99.90;;;;;;5009137;28;20033;-72
2022/09/01 00:45:13;;;;;;;34.72;18.35;;;14.70;99.90;;;;;;5001627;28;20100;-69
2022/09/01 00:47:40;;;;;;;28.30;16.35;;;14.70;99.90;;;;;;5017574;28;20212;-69
2022/09/01 00:50:08;;;;;;;31.48;16.92;;;14.60;99.90;;;;;;5008592;28;20037;-73
2022/09/01 00:52:48;;;;;;;30.10;16.73;;;14.50;99.90;;;;;;5018639;28;20030;-69
2022/09/01 00:55:21;;;;;;;31.02;17.33;;;14.50;99.90;;;;;;5026334;28;20093;-69
2022/09/01 00:57:47;;;;;;;33.42;18.10;;;14.50;99.90;;;;;;5006438;28;20042;-74
2022/09/01 01:00:15;;;;;;;31.10;17.38;;;14.40;99.90;;;;;;5008326;28;20429;-70
2022/09/01 01:02:41;;;;;;;29.80;17.38;;;14.40;99.90;;;;;;5015353;28;20033;-70
2022/09/01 01:05:08;;;;;;;35.95;20.33;;;14.40;99.90;;;;;;5007736;28;20041;-73
2022/09/01 01:07:37;;;;;;;38.28;21.08;;;14.40;99.90;;;;;;5010187;28;20033;-68
2022/09/01 01:10:05;;;;;;;36.30;20.83;;;14.40;99.90;;;;;;5009403;28;20084;-69
2022/09/01 01:12:32;;;;;;;36.17;20.73;;;14.30;99.90;;;;;;5006422;28;20420;-69
2022/09/01 01:14:57;;;;;;;39.55;21.10;;;14.20;99.90;;;;;;5009525;28;20125;-77
2022/09/01 01:17:24;;;;;;;41.63;22.38;;;14.20;99.90;;;;;;4994959;28;20463;-80
2022/09/01 01:23:01;;;;;;;37.80;21.20;;;14.20;99.90;;;;;;4989797;28;20037;-74
2022/09/01 01:25:47;;;;;;;41.35;23.20;;;14.30;99.90;;;;;;5016463;28;20623;-73
2022/09/01 01:28:17;;;;;;;41.65;22.27;;;14.30;99.90;;;;;;5005969;28;20037;-67
2022/09/01 01:30:49;;;;;;;43.17;23.83;;;14.30;99.90;;;;;;5011355;28;20113;-69
2022/09/01 01:33:17;;;;;;;41.45;23.33;;;14.20;99.90;;;;;;5006249;28;20053;-71
2022/09/01 01:35:43;;;;;;;41.53;22.67;;;14.20;99.90;;;;;;5007020;28;20077;-70
2022/09/01 01:38:10;;;;;;;41.53;22.23;;;14.20;99.90;;;;;;5007795;28;20048;-69
2022/09/01 01:40:36;;;;;;;39.20;22.60;;;14.30;99.90;;;;;;5007604;28;20026;-72
2022/09/01 01:43:03;;;;;;;45.35;22.90;;;14.30;99.90;;;;;;5008784;28;20038;-70
2022/09/01 01:45:29;;;;;;;38.13;20.58;;;14.30;99.90;;;;;;5005844;28;20052;-69
2022/09/01 01:47:55;;;;;;;34.33;19.65;;;14.30;99.90;;;;;;5021519;28;20079;-70
2022/09/01 01:50:25;;;;;;;32.08;18.63;;;14.30;99.90;;;;;;5008985;28;20029;-69
2022/09/01 01:52:53;;;;;;;33.85;18.73;;;14.10;99.90;;;;;;5008375;28;20049;-71
2022/09/01 01:55:20;;;;;;;34.40;19.45;;;14.00;99.90;;;;;;5014105;28;20495;-68
2022/09/01 01:57:49;;;;;;;36.67;20.33;;;14.00;99.90;;;;;;5013466;28;20095;-75
2022/09/01 02:00:20;;;;;;;35.63;19.73;;;13.80;99.90;;;;;;5008033;28;20069;-72
2022/09/01 02:02:51;;;;;;;;;;;13.70;99.90;;;;;;5009020;28;20697;-78
2022/09/01 02:05:30;;;;;;;38.45;20.83;;;13.80;99.90;;;;;;4984984;28;20000;-73
2022/09/01 02:08:03;;;;;;;49.03;24.55;;;13.90;99.90;;;;;;5010132;28;20092;-69
2022/09/01 02:10:43;;;;;;;36.63;20.08;;;14.00;99.90;;;;;;5013732;28;20033;-70
2022/09/01 02:13:15;;;;;;;33.35;19.10;;;14.00;99.90;;;;;;5009670;28;20116;-69
2022/09/01 02:15:44;;;;;;;37.35;19.48;;;13.80;99.90;;;;;;5005775;28;20164;-72
2022/09/01 02:18:20;;;;;;;37.00;20.42;;;13.70;99.90;;;;;;5017422;28;20060;-69
2022/09/01 02:20:49;;;;;;;35.70;20.50;;;13.80;99.90;;;;;;4998156;28;20263;-71
2022/09/01 02:23:16;;;;;;;36.97;21.77;;;13.80;99.90;;;;;;5029469;28;20038;-68
2022/09/01 02:25:44;;;;;;;41.83;22.42;;;13.80;99.90;;;;;;5004570;28;20030;-71
2022/09/01 02:28:15;;;;;;;44.28;22.60;;;13.70;99.90;;;;;;5005033;28;20850;-71
2022/09/01 02:30:52;;;;;;;40.97;21.90;;;13.80;99.90;;;;;;5004119;28;20045;-70
2022/09/01 02:33:19;;;;;;;42.80;22.65;;;13.80;99.90;;;;;;5005205;28;20089;-72
2022/09/01 02:35:56;;;;;;;46.50;22.05;;;13.70;99.90;;;;;;5006092;28;20118;-67
2022/09/01 02:38:28;;;;;;;43.45;22.30;;;13.80;99.90;;;;;;5007251;28;20038;-69
2022/09/01 02:40:57;;;;;;;40.78;21.85;;;13.70;99.90;;;;;;5006782;28;20023;-66
2022/09/01 02:43:27;;;;;;;48.88;23.15;;;13.70;99.90;;;;;;5009444;28;20216;-70
2022/09/01 02:45:56;;;;;;;43.00;23.43;;;13.70;99.90;;;;;;5001418;28;20034;-68
2022/09/01 02:48:31;;;;;;;35.60;19.80;;;13.70;99.90;;;;;;4999444;28;20308;-69
2022/09/01 02:51:00;;;;;;;40.20;20.25;;;13.70;99.90;;;;;;5009840;28;20502;-73
2022/09/01 02:53:28;;;;;;;37.03;18.35;;;13.70;99.90;;;;;;5016551;28;20053;-71
2022/09/01 02:55:57;;;;;;;33.75;18.30;;;13.60;99.90;;;;;;5009122;28;20034;-66
2022/09/01 02:58:25;;;;;;;36.85;20.42;;;13.60;99.90;;;;;;5011906;28;20026;-69
2022/09/01 03:00:53;;;;;;;35.28;20.55;;;13.50;99.90;;;;;;4993696;28;20041;-71
2022/09/01 03:03:20;;;;;;;38.67;21.00;;;13.60;99.90;;;;;;5012516;28;20092;-68
2022/09/01 03:05:47;;;;;;;32.55;18.75;;;13.50;99.90;;;;;;5011027;28;20129;-70
2022/09/01 03:08:15;;;;;;;41.17;20.95;;;13.50;99.90;;;;;;5011380;28;20022;-68
2022/09/01 03:10:43;;;;;;;42.15;21.67;;;13.50;99.90;;;;;;5009622;28;20030;-74
2022/09/01 03:13:18;;;;;;;40.45;21.52;;;13.50;99.90;;;;;;5013293;28;20073;-68
2022/09/01 03:15:44;;;;;;;42.22;21.50;;;13.50;99.90;;;;;;4993585;28;20065;-68
2022/09/01 03:18:12;;;;;;;49.80;24.48;;;13.50;99.90;;;;;;5010206;28;20030;-66
2022/09/01 03:20:41;;;;;;;49.03;25.02;;;13.50;99.90;;;;;;5010951;28;20120;-72
2022/09/01 03:23:08;;;;;;;47.73;22.87;;;13.60;99.90;;;;;;4995361;28;20407;-75
2022/09/01 03:25:35;;;;;;;47.95;25.38;;;13.60;99.90;;;;;;5011093;28;20053;-68
2022/09/01 03:28:03;;;;;;;47.55;23.85;;;13.60;99.90;;;;;;5009659;28;20034;-70
2022/09/01 03:30:30;;;;;;;46.72;24.08;;;13.70;99.90;;;;;;5012427;28;20080;-76
2022/09/01 03:32:57;;;;;;;42.15;22.58;;;13.80;99.90;;;;;;5010835;28;20050;-68
2022/09/01 03:35:27;;;;;;;47.45;23.90;;;13.90;99.90;;;;;;5011296;28;20089;-69
2022/09/01 03:37:54;;;;;;;43.97;22.85;;;13.90;99.90;;;;;;5009957;28;20029;-71
2022/09/01 03:40:20;;;;;;;35.78;16.65;;;13.90;99.90;;;;;;5009976;28;20112;-68
2022/09/01 03:42:46;;;;;;;32.78;17.67;;;13.80;99.90;;;;;;4992144;28;20042;-69
2022/09/01 03:45:14;;;;;;;34.88;19.08;;;13.60;99.90;;;;;;5008265;28;20042;-69
2022/09/01 03:47:43;;;;;;;33.92;18.40;;;13.50;99.90;;;;;;5009757;28;20079;-72
2022/09/01 03:50:21;;;;;;;35.88;20.15;;;13.60;99.90;;;;;;5010853;28;20392;-69
2022/09/01 03:52:52;;;;;;;46.70;22.17;;;13.60;99.90;;;;;;4977203;28;20053;-73
2022/09/01 03:55:23;;;;;;;44.13;23.23;;;13.60;99.90;;;;;;5012059;28;20053;-70
2022/09/01 03:57:54;;;;;;;43.42;22.75;;;13.60;99.90;;;;;;5009274;28;20034;-67
2022/09/01 04:00:22;;;;;;;49.70;25.13;;;13.60;99.90;;;;;;5010997;28;20096;-71
2022/09/01 04:02:50;;;;;;;49.60;25.60;;;13.70;99.90;;;;;;5009995;28;20026;-68
2022/09/01 04:05:26;;;;;;;51.15;26.65;;;13.80;99.90;;;;;;5010558;28;20065;-71
2022/09/01 04:07:54;;;;;;;45.03;24.27;;;14.00;99.90;;;;;;5010057;28;20038;-68
2022/09/01 04:10:21;;;;;;;36.47;19.38;;;14.10;99.90;;;;;;5008760;28;20026;-68
2022/09/01 04:12:47;;;;;;;40.92;21.98;;;14.10;99.90;;;;;;5010728;28;20508;-67
2022/09/01 04:15:14;;;;;;;47.25;23.88;;;14.00;99.90;;;;;;5010507;28;20033;-69
2022/09/01 04:20:24;;;;;;;42.85;21.80;;;14.20;99.90;;;;;;5008818;28;20045;-67
2022/09/01 04:22:51;;;;;;;33.58;18.98;;;14.20;99.90;;;;;;5006122;28;20037;-68
2022/09/01 04:25:22;;;;;;;33.13;18.95;;;14.10;99.90;;;;;;5007504;28;20095;-74
2022/09/01 04:27:49;;;;;;;34.30;19.63;;;14.10;99.90;;;;;;5001692;28;20034;-72
2022/09/01 04:30:15;;;;;;;34.53;19.45;;;14.10;99.90;;;;;;5013507;28;20112;-68
2022/09/01 04:32:45;;;;;;;35.58;18.65;;;14.10;99.90;;;;;;5009159;28;20054;-68
2022/09/01 04:35:15;;;;;;;30.75;17.38;;;14.10;99.90;;;;;;5011546;28;20034;-68
2022/09/01 04:37:42;;;;;;;32.30;18.02;;;14.00;99.90;;;;;;5009809;28;20056;-70
2022/09/01 04:40:08;;;;;;;32.45;18.17;;;14.10;99.90;;;;;;5011180;28;20061;-70
2022/09/01 04:42:34;;;;;;;38.20;19.00;;;14.10;99.90;;;;;;5010768;28;20037;-77
2022/09/01 04:45:01;;;;;;;37.13;18.85;;;14.10;99.90;;;;;;5010958;28;20038;-68
2022/09/01 04:47:30;;;;;;;38.38;21.00;;;14.00;99.90;;;;;;5003180;28;20123;-74
2022/09/01 04:49:59;;;;;;;34.33;18.80;;;14.00;99.90;;;;;;5009264;28;20105;-70
2022/09/01 04:52:26;;;;;;;36.63;20.08;;;13.90;99.90;;;;;;5006918;28;20032;-68
2022/09/01 04:54:53;;;;;;;34.90;19.10;;;13.90;99.90;;;;;;5007816;28;20038;-69
2022/09/01 04:57:19;;;;;;;37.60;20.42;;;14.00;99.90;;;;;;5006878;28;20056;-70
2022/09/01 04:59:45;;;;;;;34.55;18.60;;;14.10;99.90;;;;;;5008761;28;20046;-70
2022/09/01 05:02:11;;;;;;;35.65;19.20;;;14.20;99.90;;;;;;5009098;28;20484;-69
2022/09/01 05:04:43;;;;;;;36.92;20.38;;;14.20;99.90;;;;;;5009330;28;20490;-77
2022/09/01 05:07:10;;;;;;;36.03;19.40;;;14.30;99.90;;;;;;5007042;28;20064;-68
2022/09/01 05:09:36;;;;;;;39.45;21.38;;;14.30;99.90;;;;;;5010381;28;20101;-76
2022/09/01 05:12:15;;;;;;;40.72;20.58;;;14.40;99.90;;;;;;5003146;28;20058;-69
2022/09/01 05:14:44;;;;;;;39.20;21.42;;;14.40;99.90;;;;;;5004372;28;20081;-69
2022/09/01 05:17:11;;;;;;;52.53;25.63;;;14.60;99.90;;;;;;5006208;28;20499;-69
2022/09/01 05:19:42;;;;;;;48.03;23.35;;;14.70;99.90;;;;;;5003712;28;20564;-76
2022/09/01 05:22:09;;;;;;;50.67;25.58;;;14.70;99.90;;;;;;5004864;28;20086;-72
2022/09/01 05:24:35;;;;;;;38.13;20.15;;;14.90;99.90;;;;;;5005507;28;20481;-75
2022/09/01 05:27:06;;;;;;;40.85;20.33;;;14.70;99.90;;;;;;5007800;28;20477;-69
2022/09/01 05:29:33;;;;;;;;;;;14.60;99.90;;;;;;5009246;28;20388;-69
2022/09/01 05:31:59;;;;;;;35.53;19.80;;;14.50;99.90;;;;;;5006314;28;19985;-68
2022/09/01 05:34:25;;;;;;;41.00;21.65;;;14.50;99.90;;;;;;5008633;28;20038;-69
2022/09/01 05:36:52;;;;;;;37.90;21.05;;;14.50;99.90;;;;;;5008170;28;20030;-69
2022/09/01 05:39:19;;;;;;;42.78;22.65;;;14.60;99.90;;;;;;5009934;28;20068;-70
2022/09/01 05:41:47;;;;;;;43.20;21.75;;;14.70;99.90;;;;;;5009061;28;20116;-69
2022/09/01 05:44:17;;;;;;;44.25;22.35;;;14.80;99.90;;;;;;5009999;28;20030;-71
2022/09/01 05:46:43;;;;;;;40.75;22.15;;;14.80;99.90;;;;;;5008258;28;20034;-70
2022/09/01 05:49:12;;;;;;;40.90;20.30;;;14.80;99.90;;;;;;5009885;28;20377;-69
2022/09/01 05:51:41;;;;;;;42.28;22.98;;;14.80;99.90;;;;;;5009523;28;20037;-77
2022/09/01 05:54:08;;;;;;;46.20;23.55;;;14.90;99.90;;;;;;5009320;28;20738;-69
2022/09/01 05:56:38;;;;;;;46.85;23.38;;;14.90;99.90;;;;;;5008711;28;20022;-67
2022/09/01 05:59:04;;;;;;;44.85;23.48;;;15.00;99.90;;;;;;5011683;28;20104;-66
2022/09/01 06:01:32;;;;;;;46.75;23.90;;;15.00;99.90;;;;;;5003397;28;20421;-70
2022/09/01 06:03:59;;;;;;;47.38;24.55;;;15.00;99.90;;;;;;5008899;28;20137;-71
2022/09/01 06:06:35;;;;;;;42.70;22.58;;;15.10;99.90;;;;;;5008081;28;20117;-69
2022/09/01 06:09:01;;;;;;;45.45;23.58;;;15.10;99.90;;;;;;5005509;28;20033;-70
2022/09/01 06:11:31;;;;;;;44.55;22.40;;;15.20;99.90;;;;;;5009781;28;20030;-70
2022/09/01 06:14:00;;;;;;;42.67;23.20;;;15.20;99.90;;;;;;5008815;28;20029;-72
2022/09/01 06:16:27;;;;;;;40.38;22.33;;;15.30;99.90;;;;;;5008744;28;20141;-70
2022/09/01 06:18:54;;;;;;;40.30;22.33;;;15.20;99.90;;;;;;5008441;28;20384;-68
2022/09/01 06:21:23;;;;;;;43.50;21.30;;;15.20;99.90;;;;;;5009499;28;20040;-71
2022/09/01 06:23:50;;;;;;;40.78;21.98;;;15.20;99.90;;;;;;5008657;28;20041;-69
2022/09/01 06:26:22;;;;;;;39.38;20.88;;;15.30;99.90;;;;;;5011888;28;20471;-71
2022/09/01 06:28:53;;;;;;;38.08;21.27;;;15.40;99.90;;;;;;5012889;28;20025;-70
2022/09/01 06:31:24;;;;;;;38.95;20.70;;;15.50;99.90;;;;;;5013499;28;20371;-70
2022/09/01 06:33:53;;;;;;;;;;;15.60;99.90;;;;;;5013139;28;20439;-69
2022/09/01 06:36:22;;;;;;;41.40;20.33;;;15.70;99.90;;;;;;5012739;28;19921;-69
2022/09/01 06:38:52;;;;;;;38.97;21.67;;;15.80;99.90;;;;;;5012557;28;20041;-71
2022/09/01 06:41:19;;;;;;;37.03;20.98;;;15.90;99.90;;;;;;5013133;28;20495;-69
2022/09/01 06:43:48;;;;;;;37.03;20.85;;;15.90;99.90;;;;;;5012799;28;20030;-73
2022/09/01 06:46:16;;;;;;;38.42;21.05;;;15.90;99.90;;;;;;5012297;28;20088;-68
2022/09/01 06:48:45;;;;;;;36.35;19.05;;;16.00;99.90;;;;;;5012838;28;20434;-77
2022/09/01 06:51:15;;;;;;;40.15;21.40;;;16.00;99.90;;;;;;5013253;28;20037;-71
2022/09/01 06:53:42;;;;;;;39.03;20.88;;;16.10;99.90;;;;;;5013155;28;20109;-76
2022/09/01 06:56:12;;;;;;;35.40;21.05;;;16.20;99.90;;;;;;5011768;28;20092;-70
2022/09/01 06:58:47;;;;;;;37.40;21.30;;;16.30;99.90;;;;;;5012592;28;20045;-70
2022/09/01 07:01:18;;;;;;;38.83;21.70;;;16.40;99.90;;;;;;5013200;28;20400;-68
2022/09/01 07:03:47;;;;;;;35.33;20.70;;;16.70;99.90;;;;;;5012513;28;20038;-78
2022/09/01 07:06:14;;;;;;;35.67;18.75;;;16.90;99.90;;;;;;5011896;28;20381;-70
2022/09/01 07:08:42;;;;;;;33.88;18.20;;;17.00;99.90;;;;;;5012843;28;20536;-68
2022/09/01 07:11:22;;;;;;;32.58;18.77;;;17.10;99.90;;;;;;5006028;28;20108;-71
2022/09/01 07:13:52;;;;;;;41.85;19.10;;;17.00;99.90;;;;;;5007182;28;20041;-72
2022/09/01 07:16:20;;;;;;;35.63;19.38;;;17.00;99.90;;;;;;5018691;28;20037;-70
2022/09/01 07:18:50;;;;;;;35.75;19.08;;;16.90;99.90;;;;;;5020662;28;20384;-76
2022/09/01 07:21:17;;;;;;;31.70;17.57;;;16.90;99.90;;;;;;5010699;28;20034;-70
2022/09/01 07:23:44;;;;;;;29.13;16.92;;;17.00;99.90;;;;;;5006372;28;20330;-77
2022/09/01 07:26:13;;;;;;;25.10;15.55;;;17.10;99.90;;;;;;5008974;28;20579;-71
2022/09/01 07:28:39;;;;;;;21.25;13.27;;;17.10;99.90;;;;;;4993843;28;20030;-69
2022/09/01 07:31:07;;;;;;;28.35;15.75;;;17.10;99.90;;;;;;5009288;28;20049;-69
2022/09/01 07:33:33;;;;;;;22.40;14.30;;;17.00;99.90;;;;;;5014392;28;20092;-72
2022/09/01 07:35:59;;;;;;;25.52;14.18;;;17.10;99.90;;;;;;5010175;28;20117;-68
2022/09/01 07:38:27;;;;;;;23.00;14.90;;;17.20;99.90;;;;;;5008521;28;20144;-69
2022/09/01 07:40:53;;;;;;;21.83;13.80;;;17.20;99.90;;;;;;5008107;28;20030;-72
2022/09/01 07:43:23;;;;;;;23.13;14.32;;;17.30;99.90;;;;;;4998979;28;20054;-68
2022/09/01 07:45:55;;;;;;;21.00;13.07;;;17.30;99.90;;;;;;4991663;28;20487;-69
2022/09/01 07:48:23;;;;;;;23.45;13.38;;;17.30;99.90;;;;;;5009560;28;20049;-68
2022/09/01 07:50:52;;;;;;;20.83;13.00;;;17.20;99.90;;;;;;5010502;28;20038;-75
2022/09/01 07:53:24;;;;;;;23.15;14.32;;;17.30;99.90;;;;;;5011972;28;20038;-70
2022/09/01 07:55:51;;;;;;;22.45;13.70;;;17.20;99.90;;;;;;5011206;28;20464;-69
2022/09/01 07:58:19;;;;;;;25.65;14.50;;;17.30;99.90;;;;;;5011080;28;20038;-68
2022/09/01 08:00:46;;;;;;;26.08;14.63;;;17.20;99.90;;;;;;5011668;28;20094;-75
2022/09/01 08:03:17;;;;;;;24.35;15.60;;;17.20;99.90;;;;;;5011532;28;20026;-69
2022/09/01 08:05:43;;;;;;;25.98;16.15;;;17.20;99.90;;;;;;5012118;28;20045;-69
2022/09/01 08:08:09;;;;;;;23.70;14.90;;;17.30;99.90;;;;;;5010004;28;20022;-68
2022/09/01 08:10:39;;;;;;;21.65;14.30;;;17.30;99.90;;;;;;5011736;28;20033;-70
2022/09/01 08:13:05;;;;;;;29.33;16.00;;;17.50;99.90;;;;;;5010933;28;20030;-69
2022/09/01 08:15:31;;;;;;;28.35;16.60;;;17.60;99.90;;;;;;5011475;28;20080;-67
2022/09/01 08:17:57;;;;;;;26.95;17.17;;;17.50;99.90;;;;;;5009870;28;20042;-71
2022/09/01 08:20:22;;;;;;;25.33;16.02;;;17.40;99.90;;;;;;5011547;28;20041;-70
2022/09/01 08:22:48;;;;;;;30.02;16.23;;;17.40;99.90;;;;;;5011024;28;20021;-76
2022/09/01 08:25:15;;;;;;;26.65;15.95;;;17.30;99.90;;;;;;5011488;28;20030;-69
2022/09/01 08:27:40;;;;;;;30.38;16.08;;;17.40;99.90;;;;;;5010302;28;20111;-70
2022/09/01 08:30:09;;;;;;;20.90;13.32;;;17.50;99.90;;;;;;5010515;28;20042;-68
2022/09/01 08:32:36;;;;;;;21.20;12.32;;;17.50;99.90;;;;;;5010645;28;20056;-71
2022/09/01 08:35:03;;;;;;;24.52;13.70;;;17.60;99.90;;;;;;5010042;28;20032;-67
2022/09/01 08:37:29;;;;;;;19.40;12.85;;;17.60;99.90;;;;;;5009501;28;20041;-67
2022/09/01 08:39:55;;;;;;;21.02;12.88;;;17.50;99.90;;;;;;5010274;28;20093;-68
2022/09/01 08:42:42;;;;;;;20.63;13.00;;;17.60;99.90;;;;;;5011234;28;20034;-69
2022/09/01 08:45:23;;;;;;;24.75;11.98;;;17.60;99.90;;;;;;5009137;28;20034;-68
2022/09/01 08:47:54;;;;;;;20.60;12.45;;;17.40;99.90;;;;;;5010247;28;20113;-75
2022/09/01 08:50:21;;;;;;;19.42;12.27;;;17.30;99.90;;;;;;5010574;28;20030;-66
2022/09/01 08:52:57;;;;;;;22.23;12.50;;;17.20;99.90;;;;;;5010940;28;20033;-67
2022/09/01 08:55:27;;;;;;;18.30;11.65;;;17.20;99.90;;;;;;5009545;28;20388;-68
2022/09/01 08:57:56;;;;;;;20.35;12.98;;;17.40;99.90;;;;;;4989371;28;20428;-73
2022/09/01 09:00:28;;;;;;;19.67;11.80;;;17.50;99.90;;;;;;4990922;28;20117;-67
2022/09/01 09:03:34;;;;;;;19.38;10.90;;;17.50;99.90;;;;;;4973216;28;20045;-69
2022/09/01 09:06:21;;;;;;;18.00;11.52;;;17.60;99.90;;;;;;4976203;28;20041;-68
2022/09/01 09:08:57;;;;;;;19.35;11.30;;;17.80;99.90;;;;;;5010608;28;20034;-70
2022/09/01 09:12:00;;;;;;;16.30;11.32;;;18.10;99.90;;;;;;5010508;28;20113;-70
2022/09/01 09:14:54;;;;;;;17.20;11.55;;;18.30;99.90;;;;;;5010458;28;20069;-70
2022/09/01 09:17:26;;;;;;;15.77;10.20;;;18.60;99.90;;;;;;5009235;28;20105;-67
2022/09/01 09:20:00;;;;;;;16.02;10.75;;;18.80;99.90;;;;;;5065935;28;20371;-70
2022/09/01 09:22:26;;;;;;;14.75;10.52;;;18.80;99.90;;;;;;5067023;28;20068;-69
2022/09/01 09:24:54;;;;;;;17.65;10.30;;;19.00;99.90;;;;;;5066314;28;20060;-72
2022/09/01 09:27:31;;;;;;;14.32;9.68;;;19.10;99.90;;;;;;5065840;28;20056;-69
2022/09/01 09:30:01;;;;;;;14.20;9.38;;;18.90;99.90;;;;;;5065793;28;20052;-68
2022/09/01 09:32:59;;;;;;;16.63;9.60;;;18.80;99.90;;;;;;5067145;28;20067;-70
2022/09/01 09:35:43;;;;;;;12.57;8.48;;;18.90;99.90;;;;;;5066443;28;20413;-68
2022/09/01 09:38:31;;;;;;;11.98;8.95;;;18.90;99.90;;;;;;5064003;28;20367;-69
2022/09/01 09:41:13;;;;;;;14.80;10.23;;;18.90;99.90;;;;;;5065680;28;20036;-71
2022/09/01 09:44:17;;;;;;;13.45;8.93;;;19.10;99.90;;;;;;5066513;28;20070;-68
2022/09/01 09:46:46;;;;;;;11.05;7.95;;;19.10;99.90;;;;;;5065638;28;20151;-69
2022/09/01 09:49:25;;;;;;;14.38;8.35;;;19.10;99.90;;;;;;5064831;28;20045;-68
2022/09/01 09:51:55;;;;;;;10.90;7.40;;;19.10;99.90;;;;;;5066292;28;20032;-72
2022/09/01 09:54:24;;;;;;;11.75;7.97;;;19.10;99.90;;;;;;5066098;28;20058;-69
2022/09/01 09:57:10;;;;;;;12.25;7.80;;;19.20;99.90;;;;;;5063408;28;20040;-69
2022/09/01 09:59:47;;;;;;;13.07;7.82;;;19.30;99.90;;;;;;5065968;28;20473;-69
2022/09/01 10:02:31;;;;;;;12.00;8.15;;;19.40;99.90;;;;;;5065208;28;20025;-69
2022/09/01 10:05:18;;;;;;;13.77;7.80;;;19.50;99.90;;;;;;5065276;28;20087;-70
2022/09/01 10:07:44;;;;;;;9.73;7.30;;;20.00;99.90;;;;;;5060813;28;20063;-68
2022/09/01 10:10:37;;;;;;;11.55;7.70;;;20.30;99.90;;;;;;5065220;28;20049;-68
2022/09/01 10:13:03;;;;;;;10.32;7.53;;;20.40;99.90;;;;;;5065117;28;20119;-69
2022/09/01 10:15:32;;;;;;;12.20;7.88;;;20.30;99.90;;;;;;5066063;28;20024;-69
2022/09/01 10:18:05;;;;;;;10.30;8.00;;;20.00;99.90;;;;;;5062807;28;20144;-71
2022/09/01 10:20:36;;;;;;;12.05;7.95;;;19.90;99.90;;;;;;5065695;28;20021;-68
2022/09/01 10:23:02;;;;;;;13.25;7.88;;;19.50;99.90;;;;;;5063436;28;20033;-68
2022/09/01 10:25:33;;;;;;;11.75;8.63;;;19.10;99.90;;;;;;5065594;28;20162;-71
2022/09/01 10:28:16;;;;;;;13.75;8.95;;;18.90;99.90;;;;;;5064773;28;20064;-69
2022/09/01 10:30:44;;;;;;;14.75;9.23;;;18.80;99.90;;;;;;5056119;28;20488;-70
2022/09/01 10:33:13;;;;;;;12.57;8.75;;;18.90;99.90;;;;;;5050677;28;20033;-68
2022/09/01 10:35:43;;;;;;;14.15;10.45;;;19.00;99.90;;;;;;5052242;28;20024;-68
2022/09/01 10:38:16;;;;;;;18.90;9.60;;;19.00;99.90;;;;;;5051311;28;20087;-69
2022/09/01 10:40:47;;;;;;;14.88;10.45;;;19.00;99.90;;;;;;5052186;28;20128;-69
2022/09/01 10:43:27;;;;;;;15.80;9.23;;;19.00;99.90;;;;;;5049149;28;20037;-74
2022/09/01 10:45:53;;;;;;;14.82;9.48;;;18.80;99.90;;;;;;5032207;28;20040;-70
2022/09/01 10:48:19;;;;;;;14.30;9.98;;;18.70;99.90;;;;;;5031251;28;20068;-69
2022/09/01 10:50:48;;;;;;;13.00;9.80;;;18.60;99.90;;;;;;5032110;28;20029;-69
2022/09/01 10:53:34;;;;;;;13.35;9.20;;;18.50;99.90;;;;;;5047574;28;20367;-70
2022/09/01 10:56:24;;;;;;;14.40;9.10;;;18.50;99.90;;;;;;5046581;28;20041;-70
2022/09/01 10:58:52;;;;;;;16.63;9.50;;;18.60;99.90;;;;;;5051825;28;20035;-68
2022/09/01 11:01:44;;;;;;;14.13;9.88;;;18.60;99.90;;;;;;5050120;28;20260;-68
2022/09/01 11:04:18;;;;;;;13.88;9.88;;;18.60;99.90;;;;;;5050640;28;20405;-70
2022/09/01 11:06:50;;;;;;;13.50;9.45;;;18.50;99.90;;;;;;5051864;28;20108;-70
2022/09/01 11:09:19;;;;;;;18.05;10.15;;;18.40;99.90;;;;;;5050836;28;20051;-68
2022/09/01 11:11:48;;;;;;;13.20;9.05;;;18.40;99.90;;;;;;5050886;28;20441;-69
2022/09/01 11:14:22;;;;;;;13.57;8.95;;;18.40;99.90;;;;;;5051042;28;20130;-70
2022/09/01 11:17:09;;;;;;;15.20;9.40;;;18.50;99.90;;;;;;5051476;28;20029;-71
2022/09/01 11:19:36;;;;;;;15.20;9.48;;;18.60;99.90;;;;;;5051060;28;20580;-71
2022/09/01 11:22:27;;;;;;;18.33;9.52;;;18.70;99.90;;;;;;5049833;28;20033;-68
2022/09/01 11:25:11;;;;;;;;;;;18.80;99.90;;;;;;5051868;28;20466;-71
2022/09/01 11:27:48;;;;;;;11.57;8.13;;;19.00;99.90;;;;;;5051241;28;19954;-70
2022/09/01 11:30:30;;;;;;;12.52;8.48;;;19.10;99.90;;;;;;5050097;28;20025;-69
2022/09/01 11:33:25;;;;;;;11.82;7.50;;;19.40;99.90;;;;;;5050359;28;20390;-72
2022/09/01 11:36:12;;;;;;;10.35;7.80;;;19.40;99.90;;;;;;5049733;28;20505;-70
2022/09/01 11:38:55;;;;;;;12.65;7.53;;;19.60;99.90;;;;;;5050939;28;20037;-72
2022/09/01 11:41:23;;;;;;;10.68;7.75;;;19.80;99.90;;;;;;5047797;28;20108;-71
2022/09/01 11:43:52;;;;;;;10.88;7.63;;;19.80;99.90;;;;;;5039151;28;20048;-68
2022/09/01 11:46:25;;;;;;;9.30;7.40;;;19.90;99.90;;;;;;5050206;28;20025;-69
2022/09/01 11:48:52;;;;;;;12.38;7.43;;;20.00;99.90;;;;;;5050895;28;20056;-68
2022/09/01 11:51:18;;;;;;;11.48;7.45;;;20.20;99.90;;;;;;5049138;28;20470;-73
2022/09/01 11:53:43;;;;;;;10.05;6.55;;;20.30;99.90;;;;;;5051080;28;20074;-68
2022/09/01 11:56:19;;;;;;;12.27;7.68;;;20.40;99.90;;;;;;5049909;28;20033;-69
2022/09/01 11:58:45;;;;;;;9.93;7.38;;;20.40;99.90;;;;;;5049367;28;20029;-68
2022/09/01 12:01:33;;;;;;;11.43;7.75;;;20.50;99.90;;;;;;5048376;28;20065;-70
2022/09/01 12:04:21;;;;;;;9.02;6.85;;;20.80;99.90;;;;;;5039229;28;20057;-69
2022/09/01 12:07:05;;;;;;;9.27;6.50;;;21.20;99.90;;;;;;5030725;28;20437;-72
2022/09/01 12:09:50;;;;;;;11.73;6.80;;;21.20;99.90;;;;;;5030676;28;20037;-69
2022/09/01 12:12:35;;;;;;;10.40;7.40;;;21.60;99.90;;;;;;5040385;28;20505;-70
2022/09/01 12:15:05;;;;;;;8.52;6.45;;;21.50;99.90;;;;;;5050149;28;20098;-74
2022/09/01 12:17:32;;;;;;;8.23;6.65;;;21.50;99.90;;;;;;5050251;28;20056;-70
2022/09/01 12:20:37;;;;;;;11.32;6.20;;;21.80;99.90;;;;;;5050052;28;20044;-75
2022/09/01 12:23:28;;;;;;;10.40;6.43;;;22.20;99.90;;;;;;5046942;28;20451;-76
2022/09/01 12:25:56;;;;;;;11.95;6.78;;;23.00;99.90;;;;;;5049937;28;20381;-69
2022/09/01 12:28:25;;;;;;;13.15;6.65;;;23.30;99.90;;;;;;5049180;28;20025;-68
2022/09/01 12:30:54;;;;;;;7.60;6.18;;;23.50;99.90;;;;;;5050397;28;20465;-68
2022/09/01 12:33:20;;;;;;;8.57;6.63;;;23.20;99.90;;;;;;5047052;28;20029;-70
2022/09/01 12:35:46;;;;;;;8.30;6.35;;;23.00;99.90;;;;;;5030245;28;20086;-70
2022/09/01 12:38:17;;;;;;;9.10;6.25;;;22.80;99.90;;;;;;5029290;28;20497;-69
2022/09/01 12:40:44;;;;;;;8.13;6.65;;;22.60;99.90;;;;;;5030185;28;20096;-69
2022/09/01 12:43:25;;;;;;;9.43;6.57;;;22.80;99.90;;;;;;5046167;28;20090;-69
2022/09/01 12:45:51;;;;;;;8.30;6.38;;;23.00;99.90;;;;;;5049914;28;20158;-71
2022/09/01 12:48:34;;;;;;;8.05;6.25;;;22.80;99.90;;;;;;5049133;28;20141;-68
2022/09/01 12:51:21;;;;;;;10.93;6.65;;;22.90;99.90;;;;;;5049168;28;20120;-72
2022/09/01 12:53:56;;;;;;;8.98;7.07;;;22.90;99.90;;;;;;5048884;28;20025;-70
2022/09/01 12:56:33;;;;;;;8.80;7.05;;;23.00;99.90;;;;;;5048925;28;20048;-68